TimeEST,TemperatureF,Dew PointF,Humidity,Sea Level PressureIn,VisibilityMPH,Wind Direction,Wind SpeedMPH,Gust SpeedMPH,PrecipitationIn,Events,Conditions,WindDirDegrees,DateUTC
12:15 AM,37.6,31.1,77,29.93,10.0,West,5.8,-,N/A,,Overcast,270,2014-01-16 05:15:00
12:35 AM,36.5,31.1,81,29.94,4.0,NW,6.9,-,N/A,Rain,Rain,310,2014-01-16 05:35:00
12:55 AM,35.1,31.6,87,29.94,7.0,NW,5.8,-,N/A,,Drizzle,310,2014-01-16 05:55:00
1:15 AM,34.3,32.0,91,29.93,10.0,NNW,8.1,-,N/A,,Overcast,340,2014-01-16 06:15:00
1:35 AM,34.2,32.2,92,29.93,10.0,NNW,9.2,-,N/A,,Overcast,340,2014-01-16 06:35:00
1:55 AM,34.5,32.5,92,29.93,10.0,North,6.9,-,N/A,,Overcast,350,2014-01-16 06:55:00
2:15 AM,34.7,32.9,93,29.93,10.0,North,5.8,-,N/A,Rain,Light Rain,350,2014-01-16 07:15:00
2:35 AM,34.7,33.1,94,29.93,10.0,NNW,5.8,-,N/A,,Overcast,340,2014-01-16 07:35:00
2:55 AM,34.9,33.1,93,29.92,10.0,North,6.9,-,N/A,,Overcast,360,2014-01-16 07:55:00
3:15 AM,34.9,33.3,94,29.93,10.0,North,5.8,-,N/A,Rain,Rain,360,2014-01-16 08:15:00
3:35 AM,34.9,33.4,94,29.94,10.0,North,6.9,-,N/A,Rain,Light Rain,350,2014-01-16 08:35:00
3:55 AM,34.2,32.9,95,29.95,5.0,NNW,4.6,-,N/A,Rain,Light Rain,330,2014-01-16 08:55:00
4:15 AM,33.4,32.2,95,29.94,3.0,North,4.6,-,N/A,Snow,Light Snow,350,2014-01-16 09:15:00
4:35 AM,32.9,32.0,96,29.93,2.0,NNW,5.8,-,N/A,Snow,Light Snow,340,2014-01-16 09:35:00
4:55 AM,32.7,32.0,97,29.94,2.5,North,6.9,-,N/A,Snow,Light Snow,350,2014-01-16 09:55:00
5:15 AM,32.9,32.0,96,29.94,7.0,North,8.1,-,N/A,Snow,Light Snow,10,2014-01-16 10:15:00
5:35 AM,32.9,32.0,96,29.95,2.0,NNE,4.6,-,N/A,Snow,Light Snow,20,2014-01-16 10:35:00
5:55 AM,32.4,32.0,99,29.95,5.0,North,3.5,-,N/A,Snow,Light Snow,350,2014-01-16 10:55:00
6:15 AM,32.4,32.0,99,29.95,2.5,North,3.5,-,N/A,Snow,Light Snow,360,2014-01-16 11:15:00
6:35 AM,32.4,32.0,99,29.96,1.5,Calm,Calm,-,0.01,Snow,Light Snow,0,2014-01-16 11:35:00
6:55 AM,32.4,32.0,99,29.97,3.0,Calm,Calm,-,0.01,Snow,Light Snow,0,2014-01-16 11:55:00
7:15 AM,32.4,32.0,99,29.98,4.0,Calm,Calm,-,N/A,Snow,Light Snow,0,2014-01-16 12:15:00
7:35 AM,32.4,32.0,99,29.99,5.0,Calm,Calm,-,N/A,,Overcast,0,2014-01-16 12:35:00
7:55 AM,32.5,32.0,98,30.00,7.0,North,3.5,-,N/A,,Overcast,360,2014-01-16 12:55:00
8:15 AM,32.5,32.0,98,30.01,10.0,NNE,3.5,-,N/A,,Overcast,20,2014-01-16 13:15:00
8:35 AM,32.5,32.0,98,30.01,7.0,Calm,Calm,-,N/A,,Overcast,0,2014-01-16 13:35:00
8:55 AM,32.9,32.0,96,30.02,10.0,North,3.5,-,N/A,,Overcast,360,2014-01-16 13:55:00
9:15 AM,33.1,32.4,97,30.01,10.0,Calm,Calm,-,N/A,,Overcast,0,2014-01-16 14:15:00
9:35 AM,32.9,32.2,97,30.01,10.0,North,4.6,-,N/A,,Overcast,360,2014-01-16 14:35:00
9:55 AM,33.4,32.5,96,30.02,10.0,North,4.6,-,N/A,,Overcast,360,2014-01-16 14:55:00
10:15 AM,33.8,32.5,95,30.01,10.0,North,4.6,-,N/A,,Overcast,10,2014-01-16 15:15:00
10:35 AM,33.8,32.4,94,30.01,7.0,NE,3.5,-,N/A,,Overcast,40,2014-01-16 15:35:00
10:55 AM,33.8,32.2,94,30.01,5.0,ENE,4.6,-,N/A,Rain,Light Rain,60,2014-01-16 15:55:00
11:15 AM,34.2,32.4,93,30.00,10.0,NE,5.8,-,N/A,,Overcast,50,2014-01-16 16:15:00
11:35 AM,36.1,34.2,93,29.99,10.0,NE,5.8,-,N/A,,Mostly Cloudy,50,2014-01-16 16:35:00
11:55 AM,35.6,32.0,87,29.98,10.0,North,5.8,-,N/A,,Overcast,360,2014-01-16 16:55:00
12:15 PM,35.6,29.7,79,29.98,10.0,NE,3.5,-,N/A,,Overcast,50,2014-01-16 17:15:00
12:35 PM,37.0,30.4,77,29.97,10.0,NW,5.8,-,N/A,,Overcast,310,2014-01-16 17:35:00
12:55 PM,35.6,28.8,76,29.95,10.0,Calm,Calm,-,N/A,,Mostly Cloudy,0,2014-01-16 17:55:00
1:15 PM,36.0,26.1,67,29.94,10.0,Calm,Calm,-,0.01,,Scattered Clouds,0,2014-01-16 18:15:00
1:35 PM,39.2,28.0,64,29.94,10.0,WNW,4.6,-,0.01,,Mostly Cloudy,290,2014-01-16 18:35:00
1:55 PM,39.9,28.2,63,29.93,10.0,Calm,Calm,-,0.01,,Scattered Clouds,0,2014-01-16 18:55:00
2:15 PM,40.1,27.0,59,29.92,10.0,NNE,3.5,-,N/A,,Scattered Clouds,20,2014-01-16 19:15:00
2:35 PM,41.7,25.3,52,29.92,10.0,SW,6.9,-,N/A,,Mostly Cloudy,230,2014-01-16 19:35:00
2:55 PM,42.1,25.3,52,29.92,10.0,NW,4.6,-,N/A,,Overcast,320,2014-01-16 19:55:00
3:35 PM,41.9,23.7,49,29.92,10.0,Calm,Calm,-,N/A,,Clear,0,2014-01-16 20:35:00
3:55 PM,41.9,20.8,43,29.92,10.0,SSW,5.8,-,N/A,,Scattered Clouds,210,2014-01-16 20:55:00
4:15 PM,41.5,19.8,42,29.92,10.0,SW,3.5,-,N/A,,Clear,230,2014-01-16 21:15:00
4:35 PM,41.0,21.0,45,29.93,10.0,SW,4.6,-,N/A,,Clear,220,2014-01-16 21:35:00
4:55 PM,40.3,20.3,45,29.93,10.0,SSW,4.6,-,N/A,,Clear,210,2014-01-16 21:55:00
5:15 PM,38.8,20.3,47,29.94,10.0,SW,4.6,-,N/A,,Clear,230,2014-01-16 22:15:00
5:35 PM,37.8,20.1,49,29.95,10.0,SW,3.5,-,N/A,,Clear,230,2014-01-16 22:35:00
5:55 PM,37.0,21.2,53,29.96,10.0,Calm,Calm,-,N/A,,Clear,0,2014-01-16 22:55:00
6:15 PM,35.6,22.3,58,29.97,10.0,Calm,Calm,-,N/A,,Clear,0,2014-01-16 23:15:00
6:35 PM,34.9,23.5,63,29.97,10.0,Calm,Calm,-,N/A,,Clear,0,2014-01-16 23:35:00
6:55 PM,33.1,25.3,73,29.98,10.0,Calm,Calm,-,N/A,,Clear,0,2014-01-16 23:55:00
7:15 PM,32.0,25.9,78,29.98,10.0,Calm,Calm,-,N/A,,Clear,0,2014-01-17 00:15:00
7:35 PM,31.8,26.4,80,29.99,10.0,Calm,Calm,-,N/A,,Clear,0,2014-01-17 00:35:00
7:55 PM,32.0,23.4,70,29.99,10.0,Calm,Calm,-,N/A,,Clear,0,2014-01-17 00:55:00
8:15 PM,30.9,25.9,82,29.99,10.0,South,3.5,-,N/A,,Clear,180,2014-01-17 01:15:00
8:35 PM,30.4,23.7,76,29.99,10.0,South,3.5,-,N/A,,Clear,190,2014-01-17 01:35:00
8:55 PM,30.0,25.9,85,30.00,10.0,South,3.5,-,0.01,,Clear,180,2014-01-17 01:55:00
9:15 PM,30.4,24.3,78,30.00,10.0,South,3.5,-,N/A,,Clear,190,2014-01-17 02:15:00
9:35 PM,30.4,24.8,80,30.00,10.0,Calm,Calm,-,N/A,,Clear,0,2014-01-17 02:35:00
9:55 PM,30.9,23.5,74,30.00,10.0,South,3.5,-,N/A,,Clear,190,2014-01-17 02:55:00
10:15 PM,31.5,22.8,70,30.00,10.0,Calm,Calm,-,N/A,,Clear,0,2014-01-17 03:15:00
10:35 PM,30.6,23.7,76,30.01,10.0,Calm,Calm,-,N/A,,Clear,0,2014-01-17 03:35:00
10:55 PM,29.8,23.5,77,30.01,10.0,Calm,Calm,-,N/A,,Clear,0,2014-01-17 03:55:00
11:15 PM,29.8,23.0,76,30.01,10.0,South,3.5,-,N/A,,Clear,180,2014-01-17 04:15:00
11:35 PM,29.7,23.0,76,30.00,10.0,Calm,Calm,-,N/A,,Clear,0,2014-01-17 04:35:00
11:55 PM,28.9,23.7,81,30.00,10.0,Calm,Calm,-,N/A,,Clear,0,2014-01-17 04:55:00